Time;durP1;ratioP1;P1;durP2;ratioP2;P2;SDS_P1;SDS_P2;PMS_P1;PMS_P2;Temp;Humidity;BMP_temperature;BMP_pressure;BME280_temperature;BME280_humidity;BME280_pressure;Samples;Min_cycle;Max_cycle;Signal;HPM_P1;HPM_P2
2023/08/18 00:01:50;;;;;;;9.88;6.93;;;;;;;;;;5050733;28;20546;-63
2023/08/18 00:04:15;;;;;;;8.95;7.50;;;;;;;;;;5051920;28;20028;-63
2023/08/18 00:06:40;;;;;;;12.18;9.13;;;;;;;;;;5050981;28;20124;-63
2023/08/18 00:09:05;;;;;;;10.35;8.32;;;;;;;;;;5052464;28;20484;-63
2023/08/18 00:11:30;;;;;;;8.03;7.23;;;;;;;;;;5049330;28;20052;-63
2023/08/18 00:13:55;;;;;;;8.77;7.97;;;;;;;;;;5052153;28;20021;-63
2023/08/18 00:16:21;;;;;;;15.07;9.13;;;;;;;;;;5050641;28;20373;-63
2023/08/18 00:18:46;;;;;;;8.73;7.93;;;;;;;;;;5052191;28;20045;-63
2023/08/18 00:21:11;;;;;;;11.93;8.88;;;;;;;;;;5050316;28;20451;-63
2023/08/18 00:23:36;;;;;;;13.10;9.97;;;;;;;;;;5051764;28;20028;-63
2023/08/18 00:26:01;;;;;;;9.55;8.15;;;;;;;;;;5050602;28;20516;-63
2023/08/18 00:28:27;;;;;;;12.60;8.80;;;;;;;;;;5051443;28;20013;-63
2023/08/18 00:30:52;;;;;;;10.00;8.98;;;;;;;;;;5050673;28;20082;-66
2023/08/18 00:33:17;;;;;;;16.77;8.93;;;;;;;;;;5051637;28;20044;-65
2023/08/18 00:35:42;;;;;;;10.50;8.13;;;;;;;;;;5049740;28;20467;-65
2023/08/18 00:38:07;;;;;;;8.30;7.50;;;;;;;;;;5052014;28;20029;-65
2023/08/18 00:40:32;;;;;;;9.07;6.60;;;;;;;;;;5050381;28;20017;-64
2023/08/18 00:42:58;;;;;;;9.30;8.43;;;;;;;;;;5051294;28;20028;-64
2023/08/18 00:45:23;;;;;;;13.70;8.47;;;;;;;;;;5051769;28;20233;-64
2023/08/18 00:47:48;;;;;;;11.15;8.95;;;;;;;;;;5050171;28;20443;-63
2023/08/18 00:50:14;;;;;;;14.85;7.97;;;;;;;;;;5051062;28;20021;-63
2023/08/18 00:52:40;;;;;;;10.18;7.88;;;;;;;;;;5050160;28;20033;-63
2023/08/18 00:55:06;;;;;;;12.77;10.82;;;;;;;;;;5051554;28;20037;-63
2023/08/18 00:57:32;;;;;;;14.98;10.85;;;;;;;;;;5049624;28;20090;-63
2023/08/18 00:59:57;;;;;;;16.60;11.57;;;;;;;;;;5051423;28;20017;-63
2023/08/18 01:02:23;;;;;;;9.50;8.55;;;;;;;;;;5049431;28;20037;-63
2023/08/18 01:04:48;;;;;;;10.30;8.73;;;;;;;;;;5051096;28;20035;-63
2023/08/18 01:07:13;;;;;;;10.70;9.70;;;;;;;;;;5049821;28;20487;-63
2023/08/18 01:09:38;;;;;;;11.03;9.93;;;;;;;;;;5051247;28;20013;-63
2023/08/18 01:12:14;;;;;;;12.13;10.93;;;;;;;;;;5049430;28;21009;-63
2023/08/18 01:14:51;;;;;;;12.57;11.35;;;;;;;;;;5051401;28;20626;-63
2023/08/18 01:17:27;;;;;;;12.85;10.88;;;;;;;;;;5049519;28;20033;-63
2023/08/18 01:19:53;;;;;;;12.57;11.30;;;;;;;;;;5050644;28;20045;-64
2023/08/18 01:22:18;;;;;;;18.05;15.00;;;;;;;;;;5049025;28;20029;-64
2023/08/18 01:24:44;;;;;;;15.02;12.52;;;;;;;;;;5051079;28;20560;-64
2023/08/18 01:27:09;;;;;;;21.45;16.90;;;;;;;;;;5049241;28;20037;-65
2023/08/18 01:29:35;;;;;;;17.10;13.55;;;;;;;;;;5050672;28;20025;-65
2023/08/18 01:32:01;;;;;;;19.25;14.68;;;;;;;;;;5049638;28;20106;-64
2023/08/18 01:34:28;;;;;;;21.15;15.20;;;;;;;;;;5050345;28;20100;-64
2023/08/18 01:36:54;;;;;;;15.70;13.35;;;;;;;;;;5049409;28;20044;-64
2023/08/18 01:39:21;;;;;;;16.27;14.18;;;;;;;;;;5050645;28;20126;-64
2023/08/18 01:41:46;;;;;;;18.10;15.90;;;;;;;;;;5049192;28;20132;-64
2023/08/18 01:44:15;;;;;;;18.30;14.13;;;;;;;;;;5050816;28;20557;-64
2023/08/18 01:46:41;;;;;;;17.70;15.68;;;;;;;;;;5049138;28;20041;-63
2023/08/18 01:49:06;;;;;;;14.85;13.23;;;;;;;;;;5050269;28;20077;-64
2023/08/18 01:51:31;;;;;;;20.73;15.90;;;;;;;;;;5048646;28;20429;-64
2023/08/18 01:53:57;;;;;;;25.65;16.13;;;;;;;;;;5050756;28;20538;-64
2023/08/18 01:56:22;;;;;;;19.57;17.17;;;;;;;;;;5048734;28;20546;-64
2023/08/18 01:58:47;;;;;;;23.95;17.98;;;;;;;;;;5050693;28;20044;-64
2023/08/18 02:01:12;;;;;;;21.40;15.60;;;;;;;;;;5049343;28;20037;-64
2023/08/18 02:03:37;;;;;;;18.60;16.70;;;;;;;;;;5049774;28;20450;-64
2023/08/18 02:06:03;;;;;;;21.10;15.23;;;;;;;;;;5049194;28;20026;-64
2023/08/18 02:08:28;;;;;;;19.67;16.88;;;;;;;;;;5050428;28;20021;-64
2023/08/18 02:10:59;;;;;;;21.43;16.90;;;;;;;;;;5048620;28;20514;-64
2023/08/18 02:13:25;;;;;;;20.40;15.52;;;;;;;;;;5050150;28;20423;-64
2023/08/18 02:15:50;;;;;;;19.40;16.20;;;;;;;;;;5048938;28;20523;-63
2023/08/18 02:18:15;;;;;;;23.02;17.90;;;;;;;;;;5049614;28;20018;-63
2023/08/18 02:20:40;;;;;;;18.87;15.73;;;;;;;;;;5049331;28;20025;-63
2023/08/18 02:23:05;;;;;;;19.63;17.27;;;;;;;;;;5050597;28;20446;-63
2023/08/18 02:25:30;;;;;;;19.38;15.93;;;;;;;;;;5049694;28;20575;-64
2023/08/18 02:27:56;;;;;;;25.35;17.80;;;;;;;;;;5048930;28;20037;-64
2023/08/18 02:30:21;;;;;;;26.27;18.10;;;;;;;;;;5050572;28;20025;-62
2023/08/18 02:32:46;;;;;;;21.67;18.37;;;;;;;;;;5047937;28;20064;-64
2023/08/18 02:35:11;;;;;;;23.88;17.17;;;;;;;;;;5050451;28;20498;-64
2023/08/18 02:37:36;;;;;;;24.07;19.87;;;;;;;;;;5048488;28;20069;-64
2023/08/18 02:40:05;;;;;;;25.25;19.00;;;;;;;;;;5050082;28;20412;-64
2023/08/18 02:42:30;;;;;;;21.48;18.80;;;;;;;;;;5048576;28;20044;-64
2023/08/18 02:44:55;;;;;;;22.75;16.80;;;;;;;;;;5050122;28;20507;-65
2023/08/18 02:47:20;;;;;;;21.15;18.90;;;;;;;;;;5048163;28;20045;-65
2023/08/18 02:49:47;;;;;;;23.67;18.40;;;;;;;;;;5050361;28;20074;-65
2023/08/18 02:52:12;;;;;;;23.42;18.25;;;;;;;;;;5048787;28;20033;-65
2023/08/18 02:54:37;;;;;;;20.75;17.90;;;;;;;;;;5049677;28;20388;-65
2023/08/18 02:57:03;;;;;;;24.85;19.80;;;;;;;;;;5048609;28;20061;-65
2023/08/18 02:59:28;;;;;;;26.85;19.90;;;;;;;;;;5050796;28;20013;-64
2023/08/18 03:01:53;;;;;;;24.60;20.05;;;;;;;;;;5051744;28;20552;-64
2023/08/18 03:04:18;;;;;;;22.70;20.03;;;;;;;;;;5053465;28;20024;-64
2023/08/18 03:06:43;;;;;;;32.58;20.05;;;;;;;;;;5051894;28;20611;-64
2023/08/18 03:09:08;;;;;;;28.30;23.08;;;;;;;;;;5052180;28;20104;-64
2023/08/18 03:11:34;;;;;;;23.37;19.67;;;;;;;;;;5051589;28;20051;-65
2023/08/18 03:13:59;;;;;;;24.73;18.93;;;;;;;;;;5053551;28;20032;-64
2023/08/18 03:16:24;;;;;;;25.75;22.00;;;;;;;;;;5051813;28;20033;-64
2023/08/18 03:18:49;;;;;;;31.73;20.50;;;;;;;;;;5052841;28;20037;-64
2023/08/18 03:21:15;;;;;;;25.10;20.67;;;;;;;;;;5051684;28;20033;-64
2023/08/18 03:23:40;;;;;;;25.88;22.75;;;;;;;;;;5052575;28;20809;-64
2023/08/18 03:26:05;;;;;;;25.77;19.90;;;;;;;;;;5050281;28;20036;-65
2023/08/18 03:28:31;;;;;;;30.08;21.00;;;;;;;;;;5053252;28;20062;-66
2023/08/18 03:31:04;;;;;;;34.03;20.15;;;;;;;;;;5051867;28;20032;-66
2023/08/18 03:33:29;;;;;;;23.17;20.90;;;;;;;;;;5052293;28;20020;-66
2023/08/18 03:35:54;;;;;;;25.75;19.77;;;;;;;;;;5051524;28;20085;-66
2023/08/18 03:38:23;;;;;;;28.27;20.90;;;;;;;;;;5052736;28;20017;-65
2023/08/18 03:40:49;;;;;;;30.33;22.42;;;;;;;;;;5051619;28;20087;-65
2023/08/18 03:43:14;;;;;;;26.20;19.70;;;;;;;;;;5052675;28;20107;-65
2023/08/18 03:45:39;;;;;;;33.10;21.50;;;;;;;;;;5051240;28;20060;-65
2023/08/18 03:48:05;;;;;;;38.30;22.80;;;;;;;;;;5052594;28;20029;-65
2023/08/18 03:50:30;;;;;;;26.08;21.35;;;;;;;;;;5051174;28;20407;-64
2023/08/18 03:52:55;;;;;;;25.88;21.30;;;;;;;;;;5052720;28;20025;-64
2023/08/18 03:55:20;;;;;;;25.23;18.63;;;;;;;;;;5052082;28;20021;-64
2023/08/18 03:57:45;;;;;;;27.80;18.98;;;;;;;;;;5051071;28;20535;-64
2023/08/18 04:00:11;;;;;;;29.20;20.65;;;;;;;;;;5052694;28;20345;-66
2023/08/18 04:02:36;;;;;;;27.10;20.63;;;;;;;;;;5050385;28;20041;-66
2023/08/18 04:05:02;;;;;;;29.23;21.52;;;;;;;;;;5052386;28;20053;-62
2023/08/18 04:07:27;;;;;;;27.50;20.50;;;;;;;;;;5050678;28;20099;-65
2023/08/18 04:09:52;;;;;;;29.15;21.55;;;;;;;;;;5051495;28;20443;-65
2023/08/18 04:12:17;;;;;;;28.30;21.77;;;;;;;;;;5050545;28;20633;-64
2023/08/18 04:14:43;;;;;;;25.03;18.97;;;;;;;;;;5052170;28;20013;-65
2023/08/18 04:17:08;;;;;;;27.80;19.48;;;;;;;;;;5050368;28;20993;-65
2023/08/18 04:19:34;;;;;;;26.97;20.40;;;;;;;;;;5051783;28;20140;-65
2023/08/18 04:21:59;;;;;;;24.80;19.05;;;;;;;;;;5050757;28;21037;-70
2023/08/18 04:24:24;;;;;;;26.33;19.97;;;;;;;;;;5051077;28;20479;-62
2023/08/18 04:26:52;;;;;;;27.30;21.23;;;;;;;;;;5050496;28;20072;-62
2023/08/18 04:29:17;;;;;;;30.73;20.77;;;;;;;;;;5052016;28;20430;-62
2023/08/18 04:31:42;;;;;;;32.10;22.00;;;;;;;;;;5037867;28;20033;-61
2023/08/18 04:34:08;;;;;;;31.80;20.83;;;;;;;;;;5051837;28;20024;-61
2023/08/18 04:36:33;;;;;;;34.70;22.83;;;;;;;;;;5050350;28;20044;-61
2023/08/18 04:38:58;;;;;;;30.23;21.27;;;;;;;;;;5051394;28;20497;-60
2023/08/18 04:41:23;;;;;;;25.17;19.58;;;;;;;;;;5050147;28;20116;-60
2023/08/18 04:43:50;;;;;;;24.57;20.27;;;;;;;;;;5050867;28;20009;-61
2023/08/18 04:46:15;;;;;;;27.17;18.90;;;;;;;;;;5049281;28;20043;-60
2023/08/18 04:48:40;;;;;;;30.75;23.08;;;;;;;;;;5051721;28;20016;-60
2023/08/18 04:51:05;;;;;;;33.40;21.00;;;;;;;;;;5049097;28;20507;-61
2023/08/18 04:53:30;;;;;;;30.15;21.27;;;;;;;;;;5051049;28;20112;-62
2023/08/18 04:55:56;;;;;;;29.77;22.50;;;;;;;;;;5049809;28;20033;-60
2023/08/18 04:58:21;;;;;;;31.70;22.65;;;;;;;;;;5051239;28;20120;-61
2023/08/18 05:00:46;;;;;;;34.07;23.10;;;;;;;;;;5048361;28;20021;-61
2023/08/18 05:03:11;;;;;;;32.80;22.40;;;;;;;;;;5050522;28;20306;-61
2023/08/18 05:05:55;;;;;;;30.27;22.47;;;;;;;;;;5049926;28;21017;-61
2023/08/18 05:08:20;;;;;;;28.33;19.85;;;;;;;;;;5048876;28;20493;-61
2023/08/18 05:10:46;;;;;;;37.42;25.88;;;;;;;;;;5046342;28;20096;-61
2023/08/18 05:13:11;;;;;;;33.63;22.15;;;;;;;;;;5049589;28;20036;-62
2023/08/18 05:15:36;;;;;;;34.00;23.17;;;;;;;;;;5048869;28;20027;-62
2023/08/18 05:18:01;;;;;;;33.47;22.27;;;;;;;;;;5049274;28;20028;-62
2023/08/18 05:20:26;;;;;;;31.83;21.23;;;;;;;;;;5049738;28;20048;-62
2023/08/18 05:22:51;;;;;;;38.05;23.15;;;;;;;;;;5047877;28;20455;-61
2023/08/18 05:25:17;;;;;;;34.33;24.10;;;;;;;;;;5049289;28;20025;-62
2023/08/18 05:27:42;;;;;;;36.28;23.33;;;;;;;;;;5047267;28;20052;-62
2023/08/18 05:30:08;;;;;;;30.87;21.63;;;;;;;;;;5048751;28;20392;-62
2023/08/18 05:32:33;;;;;;;32.83;21.08;;;;;;;;;;5047483;28;20041;-62
2023/08/18 05:34:58;;;;;;;28.67;20.27;;;;;;;;;;5050645;28;20350;-62
2023/08/18 05:37:23;;;;;;;26.35;20.00;;;;;;;;;;5047850;28;20045;-62
2023/08/18 05:39:49;;;;;;;29.30;21.43;;;;;;;;;;5049545;28;20021;-61
2023/08/18 05:42:15;;;;;;;33.80;21.25;;;;;;;;;;5047764;28;20554;-62
2023/08/18 05:44:41;;;;;;;26.13;20.48;;;;;;;;;;5049668;28;20060;-61
2023/08/18 05:47:06;;;;;;;24.27;19.00;;;;;;;;;;5048850;28;20492;-62
2023/08/18 05:49:32;;;;;;;26.30;20.37;;;;;;;;;;5049275;28;20029;-62
2023/08/18 05:51:57;;;;;;;25.63;18.37;;;;;;;;;;5048594;28;20033;-61
2023/08/18 05:54:22;;;;;;;28.57;20.00;;;;;;;;;;5048761;28;20413;-62
2023/08/18 05:56:47;;;;;;;23.42;16.88;;;;;;;;;;5049046;28;20550;-67
2023/08/18 05:59:12;;;;;;;26.75;19.02;;;;;;;;;;5050409;28;20021;-72
2023/08/18 06:01:38;;;;;;;26.42;17.42;;;;;;;;;;5042405;28;20053;-62
2023/08/18 06:04:03;;;;;;;23.93;19.43;;;;;;;;;;5047595;28;20388;-61
2023/08/18 06:06:28;;;;;;;21.52;18.17;;;;;;;;;;5047756;28;20033;-61
2023/08/18 06:08:53;;;;;;;27.93;17.93;;;;;;;;;;5048289;28;20053;-62
2023/08/18 06:11:19;;;;;;;26.65;18.85;;;;;;;;;;5048044;28;20033;-61
2023/08/18 06:13:44;;;;;;;26.20;18.40;;;;;;;;;;5049484;28;20025;-61
2023/08/18 06:16:09;;;;;;;22.95;16.45;;;;;;;;;;5047881;28;20451;-61
2023/08/18 06:18:34;;;;;;;19.60;15.93;;;;;;;;;;5049115;28;20050;-60
2023/08/18 06:20:59;;;;;;;21.75;17.33;;;;;;;;;;5047030;28;20087;-61
2023/08/18 06:23:25;;;;;;;27.23;18.90;;;;;;;;;;5048439;28;20067;-61
2023/08/18 06:25:50;;;;;;;17.33;14.80;;;;;;;;;;5047894;28;20462;-61
2023/08/18 06:28:15;;;;;;;33.83;18.47;;;;;;;;;;5049736;28;20418;-61
2023/08/18 06:30:40;;;;;;;23.40;14.95;;;;;;;;;;5048526;28;20092;-60
2023/08/18 06:33:05;;;;;;;16.90;13.95;;;;;;;;;;5050207;28;20548;-61
2023/08/18 06:35:30;;;;;;;22.17;15.20;;;;;;;;;;5052230;28;20028;-59
2023/08/18 06:37:55;;;;;;;21.15;16.20;;;;;;;;;;5053495;28;20017;-61
2023/08/18 06:40:21;;;;;;;21.80;16.23;;;;;;;;;;5053503;28;20127;-61
2023/08/18 06:42:46;;;;;;;21.43;15.53;;;;;;;;;;5051935;28;20483;-61
2023/08/18 06:45:11;;;;;;;19.20;13.57;;;;;;;;;;5053268;28;20419;-60
2023/08/18 06:47:36;;;;;;;19.43;15.20;;;;;;;;;;5052179;28;20037;-61
2023/08/18 06:50:05;;;;;;;23.00;16.77;;;;;;;;;;5053799;28;20050;-60
2023/08/18 06:52:30;;;;;;;20.58;16.42;;;;;;;;;;5050706;28;20048;-61
2023/08/18 06:54:55;;;;;;;18.97;15.43;;;;;;;;;;5053208;28;20029;-60
2023/08/18 06:57:22;;;;;;;19.47;15.27;;;;;;;;;;5051776;28;20082;-60
2023/08/18 06:59:47;;;;;;;17.42;14.05;;;;;;;;;;5053108;28;20017;-60
2023/08/18 07:02:12;;;;;;;21.83;12.93;;;;;;;;;;5051811;28;20074;-61
2023/08/18 07:04:37;;;;;;;14.90;12.57;;;;;;;;;;5053002;28;20384;-61
2023/08/18 07:07:03;;;;;;;17.53;13.70;;;;;;;;;;5051808;28;20041;-61
2023/08/18 07:09:28;;;;;;;15.20;11.18;;;;;;;;;;5053174;28;20510;-61
2023/08/18 07:11:53;;;;;;;12.63;10.63;;;;;;;;;;5051656;28;20044;-61
2023/08/18 07:14:19;;;;;;;11.23;10.03;;;;;;;;;;5052685;28;20017;-61
2023/08/18 07:16:44;;;;;;;12.95;10.77;;;;;;;;;;5051848;28;20866;-61
2023/08/18 07:19:09;;;;;;;17.13;12.23;;;;;;;;;;5052915;28;20052;-61
2023/08/18 07:21:34;;;;;;;15.63;13.10;;;;;;;;;;5050879;28;20059;-61
2023/08/18 07:24:00;;;;;;;20.88;14.00;;;;;;;;;;5052738;28;20028;-61
2023/08/18 07:26:26;;;;;;;17.73;13.63;;;;;;;;;;5051243;28;20048;-60
2023/08/18 07:28:51;;;;;;;15.55;13.27;;;;;;;;;;5052812;28;20033;-61
2023/08/18 07:31:17;;;;;;;12.67;11.47;;;;;;;;;;5051168;28;20117;-61
2023/08/18 07:33:42;;;;;;;17.85;13.27;;;;;;;;;;5052688;28;20016;-61
2023/08/18 07:36:07;;;;;;;16.60;13.83;;;;;;;;;;5051151;28;20048;-61
2023/08/18 07:38:34;;;;;;;17.93;13.57;;;;;;;;;;5052435;28;20432;-61
2023/08/18 07:40:59;;;;;;;18.90;14.27;;;;;;;;;;5051268;28;20852;-61
2023/08/18 07:43:24;;;;;;;20.05;16.35;;;;;;;;;;5052018;28;20036;-60
2023/08/18 07:45:49;;;;;;;14.87;13.30;;;;;;;;;;5049706;28;20052;-60
2023/08/18 07:48:14;;;;;;;16.47;13.43;;;;;;;;;;5051942;28;20096;-60
2023/08/18 07:50:40;;;;;;;15.33;12.27;;;;;;;;;;5049240;28;20542;-60
2023/08/18 07:53:05;;;;;;;20.42;12.27;;;;;;;;;;5047746;28;20498;-59
2023/08/18 07:55:30;;;;;;;11.47;9.67;;;;;;;;;;5050459;28;20021;-58
2023/08/18 07:57:56;;;;;;;11.63;10.33;;;;;;;;;;5051017;28;20418;-59
2023/08/18 08:00:21;;;;;;;18.97;14.23;;;;;;;;;;5052013;28;20071;-59
2023/08/18 08:02:46;;;;;;;18.73;12.33;;;;;;;;;;5050838;28;20043;-59
2023/08/18 08:05:21;;;;;;;17.92;13.95;;;;;;;;;;5051920;28;20024;-59
2023/08/18 08:07:47;;;;;;;13.88;11.82;;;;;;;;;;5050701;28;20099;-60
2023/08/18 08:10:12;;;;;;;17.65;14.45;;;;;;;;;;5052244;28;20025;-59
2023/08/18 08:12:38;;;;;;;15.45;13.38;;;;;;;;;;5049795;28;20037;-59
2023/08/18 08:15:04;;;;;;;15.77;12.60;;;;;;;;;;5052248;28;20051;-62
2023/08/18 08:17:30;;;;;;;14.27;12.82;;;;;;;;;;5050253;28;20044;-59
2023/08/18 08:19:56;;;;;;;17.40;13.82;;;;;;;;;;5051794;28;20045;-59
2023/08/18 08:22:22;;;;;;;15.88;13.10;;;;;;;;;;5049785;28;20037;-59
2023/08/18 08:24:48;;;;;;;14.02;12.00;;;;;;;;;;5051725;28;20491;-59
2023/08/18 08:27:15;;;;;;;13.88;12.30;;;;;;;;;;5050356;28;20118;-59
2023/08/18 08:29:40;;;;;;;12.35;10.75;;;;;;;;;;5051528;28;20021;-59
2023/08/18 08:32:05;;;;;;;13.18;9.77;;;;;;;;;;5050162;28;20033;-59
2023/08/18 08:34:30;;;;;;;10.63;9.40;;;;;;;;;;5051312;28;20024;-59
2023/08/18 08:36:55;;;;;;;14.33;10.53;;;;;;;;;;5049687;28;20033;-59
2023/08/18 08:39:21;;;;;;;12.60;10.73;;;;;;;;;;5051179;28;20017;-59
2023/08/18 08:41:46;;;;;;;10.37;8.73;;;;;;;;;;5048767;28;20488;-59
2023/08/18 08:44:11;;;;;;;12.50;10.40;;;;;;;;;;5050939;28;20096;-59
2023/08/18 08:46:37;;;;;;;11.63;10.53;;;;;;;;;;5049728;28;20549;-59
2023/08/18 08:49:04;;;;;;;10.38;8.88;;;;;;;;;;5051329;28;20025;-59
2023/08/18 08:51:31;;;;;;;11.15;9.98;;;;;;;;;;5048845;28;20116;-60
2023/08/18 08:53:58;;;;;;;13.48;10.57;;;;;;;;;;5051522;28;20056;-59
2023/08/18 08:56:26;;;;;;;8.95;8.05;;;;;;;;;;5049527;28;20113;-59
2023/08/18 08:58:51;;;;;;;9.40;8.32;;;;;;;;;;5051057;28;20357;-59
2023/08/18 09:01:17;;;;;;;10.00;9.00;;;;;;;;;;5049364;28;20176;-59
2023/08/18 09:03:43;;;;;;;10.75;9.48;;;;;;;;;;5050955;28;20021;-59
2023/08/18 09:06:09;;;;;;;8.80;7.70;;;;;;;;;;5049432;28;20094;-59
2023/08/18 09:08:35;;;;;;;9.32;8.43;;;;;;;;;;5050233;28;20060;-59
2023/08/18 09:11:00;;;;;;;11.98;9.35;;;;;;;;;;5045667;28;20442;-60
2023/08/18 09:13:27;;;;;;;10.93;8.10;;;;;;;;;;5050226;28;20029;-59
2023/08/18 09:15:52;;;;;;;12.05;9.23;;;;;;;;;;5049419;28;20025;-59
2023/08/18 09:18:17;;;;;;;10.77;9.73;;;;;;;;;;5048998;28;20426;-60
2023/08/18 09:20:43;;;;;;;10.55;9.27;;;;;;;;;;5046432;28;20416;-60
2023/08/18 09:23:08;;;;;;;10.23;9.18;;;;;;;;;;5050721;28;20028;-60
2023/08/18 09:25:34;;;;;;;11.83;8.87;;;;;;;;;;5048747;28;20029;-63
2023/08/18 09:27:59;;;;;;;11.75;10.50;;;;;;;;;;5049887;28;20447;-59
2023/08/18 09:30:24;;;;;;;13.75;9.73;;;;;;;;;;5050088;28;20083;-60
2023/08/18 09:32:50;;;;;;;11.50;9.98;;;;;;;;;;5049198;28;20424;-59
2023/08/18 09:35:19;;;;;;;11.65;9.38;;;;;;;;;;5049834;28;20029;-60
2023/08/18 09:37:44;;;;;;;10.30;8.85;;;;;;;;;;5046358;28;20128;-59
2023/08/18 09:40:10;;;;;;;9.87;8.87;;;;;;;;;;5043241;28;20092;-60
2023/08/18 09:42:35;;;;;;;10.57;9.25;;;;;;;;;;5047747;28;20570;-59
2023/08/18 09:45:00;;;;;;;10.40;9.30;;;;;;;;;;5050574;28;20379;-60
2023/08/18 09:47:28;;;;;;;11.52;9.25;;;;;;;;;;5048673;28;20041;-59
2023/08/18 09:49:54;;;;;;;12.80;8.05;;;;;;;;;;5050034;28;20029;-60
2023/08/18 09:52:21;;;;;;;9.00;7.95;;;;;;;;;;5048844;28;20116;-59
2023/08/18 09:54:46;;;;;;;8.33;7.30;;;;;;;;;;5050265;28;20021;-59
2023/08/18 09:57:15;;;;;;;9.02;8.13;;;;;;;;;;5048427;28;20037;-60
2023/08/18 09:59:43;;;;;;;8.23;7.43;;;;;;;;;;5046225;28;20495;-59
2023/08/18 10:02:11;;;;;;;12.55;8.38;;;;;;;;;;5047591;28;20507;-60
2023/08/18 10:04:39;;;;;;;9.18;8.18;;;;;;;;;;5048717;28;20029;-59
2023/08/18 10:07:04;;;;;;;8.90;7.85;;;;;;;;;;5035312;28;20416;-60
2023/08/18 10:09:33;;;;;;;9.65;8.50;;;;;;;;;;5041052;28;20025;-60
2023/08/18 10:11:58;;;;;;;8.80;7.97;;;;;;;;;;5052817;28;20041;-59
2023/08/18 10:14:25;;;;;;;8.80;8.00;;;;;;;;;;5054311;28;20426;-59
2023/08/18 10:16:52;;;;;;;13.55;9.00;;;;;;;;;;5053017;28;20063;-60
2023/08/18 10:19:37;;;;;;;6.80;6.20;;;;;;;;;;5053208;28;20049;-59
2023/08/18 10:22:03;;;;;;;9.30;8.40;;;;;;;;;;5050149;28;20463;-60
2023/08/18 10:24:29;;;;;;;9.52;8.63;;;;;;;;;;5054336;28;20029;-60
2023/08/18 10:26:54;;;;;;;8.77;7.97;;;;;;;;;;5052472;28;20043;-60
2023/08/18 10:29:19;;;;;;;8.93;8.13;;;;;;;;;;5053068;28;20099;-60
2023/08/18 10:31:48;;;;;;;11.00;9.18;;;;;;;;;;5052124;28;20043;-60
2023/08/18 10:34:22;;;;;;;9.52;8.55;;;;;;;;;;5054244;28;20021;-60
2023/08/18 10:36:47;;;;;;;8.98;7.90;;;;;;;;;;5052645;28;20033;-60
2023/08/18 10:39:21;;;;;;;9.83;7.63;;;;;;;;;;5054001;28;20525;-60
2023/08/18 10:42:07;;;;;;;8.80;7.32;;;;;;;;;;5051788;28;20041;-60
2023/08/18 10:44:32;;;;;;;8.45;7.63;;;;;;;;;;5053104;28;20021;-60
2023/08/18 10:46:57;;;;;;;7.70;6.90;;;;;;;;;;5052733;28;20037;-60
2023/08/18 10:49:22;;;;;;;9.85;6.55;;;;;;;;;;5053125;28;20048;-60
2023/08/18 10:51:49;;;;;;;9.82;7.43;;;;;;;;;;5051008;28;20033;-60
2023/08/18 10:54:14;;;;;;;10.45;7.68;;;;;;;;;;5052596;28;20024;-60
2023/08/18 10:56:39;;;;;;;8.63;7.72;;;;;;;;;;5051048;28;20060;-60
2023/08/18 10:59:05;;;;;;;8.02;7.22;;;;;;;;;;5053073;28;20017;-60
2023/08/18 11:01:30;;;;;;;10.07;7.55;;;;;;;;;;5051547;28;20124;-60
2023/08/18 11:03:57;;;;;;;9.53;8.63;;;;;;;;;;5051578;28;20115;-60
2023/08/18 11:06:26;;;;;;;10.43;8.68;;;;;;;;;;5051550;28;20474;-60
2023/08/18 11:08:52;;;;;;;9.00;8.00;;;;;;;;;;5051249;28;20016;-60
2023/08/18 11:11:18;;;;;;;8.68;7.88;;;;;;;;;;5049567;28;20619;-60
2023/08/18 11:13:44;;;;;;;13.45;8.35;;;;;;;;;;5052760;28;20054;-60
2023/08/18 11:16:09;;;;;;;10.98;9.88;;;;;;;;;;5051416;28;20408;-60
2023/08/18 11:18:34;;;;;;;8.93;7.38;;;;;;;;;;5052342;28;20044;-60
2023/08/18 11:21:00;;;;;;;9.35;8.38;;;;;;;;;;5049912;28;20044;-60
2023/08/18 11:23:26;;;;;;;11.43;10.23;;;;;;;;;;5052507;28;20017;-60
2023/08/18 11:25:51;;;;;;;12.20;8.85;;;;;;;;;;5050946;28;20100;-60
2023/08/18 11:28:17;;;;;;;10.57;9.13;;;;;;;;;;5052517;28;20436;-60
2023/08/18 11:30:42;;;;;;;10.07;7.63;;;;;;;;;;5051532;28;20029;-61
2023/08/18 11:33:08;;;;;;;10.63;9.48;;;;;;;;;;5052302;28;20104;-60
2023/08/18 11:35:33;;;;;;;9.87;8.83;;;;;;;;;;5051216;28;20043;-59
2023/08/18 11:37:58;;;;;;;9.48;8.48;;;;;;;;;;5052910;28;20453;-60
2023/08/18 11:40:23;;;;;;;11.77;9.30;;;;;;;;;;5052302;28;20023;-60
2023/08/18 11:42:49;;;;;;;10.73;9.60;;;;;;;;;;5051116;28;20041;-60
2023/08/18 11:45:19;;;;;;;10.15;9.15;;;;;;;;;;5052555;28;20021;-60
2023/08/18 11:47:46;;;;;;;12.40;10.60;;;;;;;;;;5050639;28;20523;-61
2023/08/18 11:50:19;;;;;;;11.13;9.93;;;;;;;;;;5052464;28;20032;-61
2023/08/18 11:52:44;;;;;;;9.35;8.52;;;;;;;;;;5050513;28;20040;-60
2023/08/18 11:55:11;;;;;;;9.38;8.23;;;;;;;;;;5051483;28;20024;-60
2023/08/18 11:57:40;;;;;;;15.25;9.93;;;;;;;;;;5050021;28;20033;-61
2023/08/18 12:00:11;;;;;;;9.02;8.10;;;;;;;;;;5051730;28;20062;-60
2023/08/18 12:02:39;;;;;;;13.73;9.20;;;;;;;;;;5049406;28;20621;-60
2023/08/18 12:05:05;;;;;;;10.05;8.57;;;;;;;;;;5050809;28;20387;-61
2023/08/18 12:07:30;;;;;;;9.40;8.52;;;;;;;;;;5049169;28;20108;-60
2023/08/18 12:09:55;;;;;;;18.53;9.57;;;;;;;;;;5049714;28;20024;-61
2023/08/18 12:12:20;;;;;;;9.43;8.47;;;;;;;;;;5049054;28;20372;-59
2023/08/18 12:14:45;;;;;;;13.57;7.95;;;;;;;;;;5049858;28;20112;-61
2023/08/18 12:17:11;;;;;;;9.65;8.48;;;;;;;;;;5048788;28;20118;-60
2023/08/18 12:19:36;;;;;;;8.87;7.97;;;;;;;;;;5049940;28;20044;-60
2023/08/18 12:22:01;;;;;;;12.75;9.30;;;;;;;;;;5048831;28;20500;-60
2023/08/18 12:24:26;;;;;;;8.30;7.50;;;;;;;;;;5050715;28;20035;-60
2023/08/18 12:26:51;;;;;;;9.85;7.28;;;;;;;;;;5049879;28;20041;-60
2023/08/18 12:29:16;;;;;;;7.53;6.87;;;;;;;;;;5051607;28;20100;-60
2023/08/18 12:31:41;;;;;;;8.37;7.17;;;;;;;;;;5038497;28;20103;-60
2023/08/18 12:34:07;;;;;;;9.13;7.05;;;;;;;;;;5049505;28;20032;-60
2023/08/18 12:36:33;;;;;;;8.43;7.50;;;;;;;;;;5049334;28;20105;-60
2023/08/18 12:38:58;;;;;;;8.07;7.28;;;;;;;;;;5051584;28;20044;-60
2023/08/18 12:41:25;;;;;;;12.33;5.83;;;;;;;;;;5049047;28;20120;-60
2023/08/18 12:43:51;;;;;;;8.75;7.93;;;;;;;;;;5051341;28;20009;-60
2023/08/18 12:46:16;;;;;;;8.40;7.07;;;;;;;;;;5049600;28;20048;-60
2023/08/18 12:48:41;;;;;;;6.50;5.90;;;;;;;;;;5071143;28;20020;-63
2023/08/18 12:51:06;;;;;;;6.68;6.07;;;;;;;;;;5059792;28;20033;-60
2023/08/18 12:53:32;;;;;;;7.33;6.50;;;;;;;;;;5050581;28;20035;-60
2023/08/18 12:55:57;;;;;;;9.07;6.97;;;;;;;;;;5048575;28;20542;-60
2023/08/18 12:58:22;;;;;;;6.70;6.10;;;;;;;;;;5050807;28;20021;-60
2023/08/18 13:00:47;;;;;;;9.30;6.82;;;;;;;;;;5048615;28;21041;-60
2023/08/18 13:03:12;;;;;;;7.03;6.32;;;;;;;;;;5050587;28;20133;-60
2023/08/18 13:05:37;;;;;;;9.60;6.37;;;;;;;;;;5048711;28;20032;-60
2023/08/18 13:08:03;;;;;;;10.47;5.57;;;;;;;;;;5049819;28;20382;-60
2023/08/18 13:10:29;;;;;;;6.33;5.73;;;;;;;;;;5050097;28;20023;-60
2023/08/18 13:12:54;;;;;;;8.07;5.55;;;;;;;;;;5048876;28;20568;-60
2023/08/18 13:15:19;;;;;;;6.53;5.57;;;;;;;;;;5050411;28;20094;-60
2023/08/18 13:17:44;;;;;;;14.60;8.33;;;;;;;;;;5048778;28;20369;-60
2023/08/18 13:20:10;;;;;;;6.17;5.63;;;;;;;;;;5050294;28;20878;-60
2023/08/18 13:22:37;;;;;;;6.40;5.53;;;;;;;;;;5049214;28;20037;-60
2023/08/18 13:25:12;;;;;;;5.22;4.72;;;;;;;;;;5050235;28;20024;-60
2023/08/18 13:27:41;;;;;;;6.63;5.38;;;;;;;;;;5035421;28;20044;-60
2023/08/18 13:30:08;;;;;;;7.18;5.00;;;;;;;;;;5049878;28;20024;-60
2023/08/18 13:32:33;;;;;;;5.72;5.15;;;;;;;;;;5045094;28;20033;-60
2023/08/18 13:34:59;;;;;;;6.05;5.55;;;;;;;;;;5050608;28;20028;-60
2023/08/18 13:37:24;;;;;;;6.75;5.35;;;;;;;;;;5048695;28;20056;-61
2023/08/18 13:39:49;;;;;;;5.03;4.20;;;;;;;;;;5050436;28;20013;-60
2023/08/18 13:42:17;;;;;;;5.55;5.05;;;;;;;;;;5048153;28;20430;-60
2023/08/18 13:44:42;;;;;;;5.95;4.47;;;;;;;;;;5049364;28;20073;-61
2023/08/18 13:47:07;;;;;;;5.67;5.13;;;;;;;;;;5054470;28;20711;-60
2023/08/18 13:49:33;;;;;;;6.63;5.97;;;;;;;;;;5046676;28;20455;-61
2023/08/18 13:51:58;;;;;;;4.93;4.53;;;;;;;;;;5049166;28;20037;-60
2023/08/18 13:54:23;;;;;;;5.63;5.10;;;;;;;;;;5048398;28;20472;-61
2023/08/18 13:56:48;;;;;;;6.20;5.70;;;;;;;;;;5048413;28;20037;-61
2023/08/18 13:59:13;;;;;;;8.03;5.77;;;;;;;;;;5050586;28;20025;-60
2023/08/18 14:01:38;;;;;;;5.00;4.60;;;;;;;;;;5047316;28;20124;-60
2023/08/18 14:04:04;;;;;;;7.47;6.77;;;;;;;;;;5049537;28;20160;-61
2023/08/18 14:06:29;;;;;;;6.70;4.72;;;;;;;;;;5046595;28;20041;-60
2023/08/18 14:08:54;;;;;;;7.00;6.30;;;;;;;;;;5041508;28;20383;-61
2023/08/18 14:11:19;;;;;;;5.18;4.70;;;;;;;;;;5043894;28;20459;-60
2023/08/18 14:13:45;;;;;;;9.75;5.38;;;;;;;;;;5049863;28;20032;-61
2023/08/18 14:16:10;;;;;;;6.00;4.78;;;;;;;;;;5048490;28;20029;-61
2023/08/18 14:18:35;;;;;;;5.73;4.90;;;;;;;;;;5048886;28;20117;-61